Latest Weather Observations for Hervey Bay

IDQ60801

Issued at 11:01 am EST Monday 30 May 2016 (issued every 30 minutes, with the page automatically refreshed every 10 minutes)

About weather observations | Map of weather stations | Latest weather observations for QLD | Other Formats
Station Details ID: 040405 Name: HERVEY BAY AIRPORT Lat: -25.32 Lon: 152.88 Height: 12.98 m
Data from the previous 72 hours. | See also: Recent months at Hervey Bay
Date/Time
EST
Temp
°C
App
Temp
°C
Dew
Point
Rel
Hum
%
Delta-T
°C
Wind Press
QNH
hPa
Press
MSL
hPa
Rain
since 9 am
mm
Dir
 
Spd
km/h
Gust
km/h
Spd
kts
Gust
kts
30/11:00am 22.1 19.9 9.3 44 6.8 S 11 17 6 9 1022.7 1022.6 0.0
30/10:30am 20.9 18.3 7.9 43 6.7 SSW 11 15 6 8 1023.0 1022.9 0.0
30/10:00am 19.7 16.4 6.4 42 6.6 SSW 13 17 7 9 1023.1 1023.0 0.0
30/09:30am 18.0 14.3 6.5 47 5.7 SSW 15 20 8 11 1023.3 1023.2 0.0
30/09:00am 16.4 13.4 6.2 51 4.9 SSW 11 17 6 9 1023.2 1023.1 0.0
30/08:30am 14.2 11.3 6.3 59 3.8 SSW 11 15 6 8 1023.1 1023.0 0.0
30/08:00am 12.2 8.7 5.6 64 3.1 SSW 13 15 7 8 1022.7 1022.6 0.0
30/07:30am 10.7 7.7 5.9 72 2.2 SW 11 15 6 8 1022.6 1022.5 0.0
30/07:00am 7.4 4.8 6.0 91 0.6 SSW 9 13 5 7 1022.1 1022.0 0.0
30/06:30am 5.4 2.4 3.9 90 0.6 SSW 9 11 5 6 1021.7 1021.6 0.0
30/06:00am 5.2 2.5 3.9 91 0.5 SSW 7 9 4 5 1021.4 1021.3 0.0
30/05:30am 5.0 2.3 3.5 90 0.6 SSW 7 7 4 4 1021.1 1021.0 0.0
30/05:00am 5.3 2.3 4.0 91 0.5 SSW 9 11 5 6 1020.7 1020.6 0.0
30/04:30am 5.0 2.3 3.7 91 0.5 SW 7 9 4 5 1020.6 1020.5 0.0
30/04:00am 5.3 2.8 4.0 91 0.5 SW 6 7 3 4 1020.3 1020.2 0.0
30/03:30am 5.5 2.9 4.2 91 0.6 SW 7 9 4 5 1020.3 1020.2 0.0
30/03:00am 5.3 2.2 3.8 90 0.6 SW 9 11 5 6 1020.2 1020.1 0.0
30/02:30am 5.7 3.3 4.3 91 0.6 SW 6 7 3 4 1020.1 1020.0 0.0
30/02:00am 5.6 4.3 3.9 89 0.7 CALM 0 0 0 0 1020.1 1020.0 0.0
30/01:30am 6.0 4.7 4.3 89 0.7 CALM 0 0 0 0 1020.0 1019.9 0.0
30/01:00am 6.3 5.1 4.6 89 0.7 CALM 0 0 0 0 1020.1 1020.0 0.0
30/12:30am 6.9 5.9 5.4 90 0.7 CALM 0 0 0 0 1020.2 1020.1 0.0
30/12:00am 6.8 4.9 5.1 89 0.7 SW 4 7 2 4 1020.1 1020.0 0.0
 
Date/Time
EST
Temp
°C
App
Temp
°C
Dew
Point
Rel
Hum
%
Delta-T
°C
Wind Press
QNH
hPa
Press
MSL
hPa
Rain
since 9 am
mm
Dir
 
Spd
km/h
Gust
km/h
Spd
kts
Gust
kts
29/11:30pm 7.3 6.3 5.4 88 0.8 CALM 0 0 0 0 1020.3 1020.2 0.0
29/11:00pm 7.5 6.5 5.6 88 0.8 CALM 0 2 0 1 1020.5 1020.4 0.0
29/10:30pm 8.0 6.4 6.3 89 0.8 SW 4 7 2 4 1020.7 1020.6 0.0
29/10:00pm 8.6 7.5 7.1 90 0.7 WSW 2 7 1 4 1020.7 1020.6 0.0
29/09:30pm 8.8 8.1 6.9 88 0.9 CALM 0 0 0 0 1020.7 1020.6 0.0
29/09:00pm 8.8 8.0 6.6 86 1.0 CALM 0 0 0 0 1020.4 1020.3 0.0
29/08:30pm 9.4 8.8 7.5 88 0.9 CALM 0 0 0 0 1020.1 1020.0 0.0
29/08:00pm 9.6 9.0 7.4 86 1.0 CALM 0 0 0 0 1019.8 1019.7 0.0
29/07:30pm 9.8 9.1 6.9 82 1.4 CALM 0 0 0 0 1019.5 1019.4 0.0
29/07:00pm 10.5 9.9 7.2 80 1.6 CALM 0 0 0 0 1019.1 1019.0 0.0
29/06:30pm 11.5 10.9 7.6 77 1.9 CALM 0 0 0 0 1018.8 1018.7 0.0
29/06:00pm 12.5 10.8 7.4 71 2.5 S 6 7 3 4 1018.5 1018.4 0.0
29/05:30pm 14.5 14.2 8.5 67 3.0 CALM 0 0 0 0 1018.2 1018.1 0.0
29/05:00pm 18.0 17.2 8.3 53 5.0 N 2 7 1 4 1017.8 1017.7 0.0
29/04:30pm 20.6 18.1 6.5 40 7.1 N 9 13 5 7 1017.6 1017.5 0.0
29/04:00pm 21.7 18.6 5.6 35 8.0 NNE 11 13 6 7 1017.2 1017.1 0.0
29/03:30pm 21.6 17.9 4.2 32 8.5 NE 13 15 7 8 1017.0 1016.9 0.0
29/03:00pm 21.5 17.7 4.1 32 8.4 NE 13 17 7 9 1016.8 1016.7 0.0
29/02:30pm 21.1 17.4 4.6 34 8.0 NE 13 20 7 11 1016.7 1016.6 0.0
29/02:00pm 21.9 17.7 5.8 35 8.1 E 17 20 9 11 1016.4 1016.3 0.0
29/01:30pm 21.2 17.2 4.7 34 8.1 ESE 15 20 8 11 1016.7 1016.6 0.0
29/01:00pm 20.5 16.3 5.7 38 7.3 E 17 20 9 11 1016.8 1016.7 0.0
29/12:30pm 20.4 17.0 6.0 39 7.2 E 13 17 7 9 1017.1 1017.0 0.0
29/12:00pm 21.0 18.1 2.8 30 8.5 SSW 7 15 4 8 1017.6 1017.5 0.0
29/11:30am 20.1 16.0 2.5 31 8.2 S 13 24 7 13 1018.2 1018.1 0.0
29/11:00am 19.8 15.8 3.1 33 7.8 SSW 13 22 7 12 1018.5 1018.4 0.0
29/10:30am 19.0 14.6 2.8 34 7.5 SSW 15 20 8 11 1018.9 1018.8 0.0
29/10:00am 18.5 13.7 2.8 35 7.2 SSW 17 24 9 13 1019.4 1019.3 0.0
29/09:30am 17.9 13.6 3.4 38 6.7 SSW 15 20 8 11 1019.3 1019.2 0.0
29/09:00am 16.8 13.1 4.5 44 5.8 SW 13 17 7 9 1019.3 1019.2 0.0
29/08:30am 15.7 12.0 4.7 48 5.2 SW 13 19 7 10 1019.2 1019.1 0.0
29/08:00am 14.4 11.3 3.8 49 4.8 SSW 9 11 5 6 1018.8 1018.7 0.0
29/07:30am 13.0 10.6 4.4 56 3.9 SSW 6 9 3 5 1018.8 1018.7 0.0
29/07:00am 11.7 8.7 4.0 59 3.4 SW 9 17 5 9 1018.4 1018.3 0.0
29/06:47am 10.6 6.9 4.5 66 2.7 SW 13 17 7 9 1018.3 1018.2 0.0
29/06:30am 5.6 2.6 4.1 90 0.6 WSW 9 11 5 6 1018.2 1018.1 0.0
29/06:00am 5.6 2.6 4.1 90 0.6 SW 9 11 5 6 1017.8 1017.7 0.0
29/05:30am 6.3 3.5 5.1 92 0.5 SW 9 11 5 6 1017.5 1017.4 0.0
29/05:00am 6.1 2.8 4.7 91 0.6 SW 11 11 6 6 1017.1 1017.0 0.0
29/04:30am 5.5 3.4 3.7 88 0.8 WSW 4 7 2 4 1017.2 1017.1 0.0
29/04:00am 5.8 4.5 4.1 89 0.7 CALM 0 0 0 0 1017.0 1016.9 0.0
29/03:30am 5.8 3.3 3.8 87 0.8 SSW 6 7 3 4 1016.8 1016.7 0.0
29/03:00am 6.3 5.0 4.3 87 0.9 CALM 0 0 0 0 1016.5 1016.4 0.0
29/02:30am 6.7 4.4 4.7 87 0.9 SW 6 7 3 4 1016.3 1016.2 0.0
29/02:00am 7.5 6.4 5.3 86 1.0 CALM 0 0 0 0 1016.3 1016.2 0.0
29/01:30am 7.5 5.3 5.3 86 1.0 SW 6 9 3 5 1016.2 1016.1 0.0
29/01:00am 8.1 5.8 5.9 86 1.0 SW 7 9 4 5 1016.2 1016.1 0.0
29/12:30am 8.7 6.8 6.7 87 0.9 SW 6 7 3 4 1016.1 1016.0 0.0
29/12:00am 9.3 7.2 6.7 84 1.2 SSW 7 9 4 5 1016.0 1015.9 0.0
 
Date/Time
EST
Temp
°C
App
Temp
°C
Dew
Point
Rel
Hum
%
Delta-T
°C
Wind Press
QNH
hPa
Press
MSL
hPa
Rain
since 9 am
mm
Dir
 
Spd
km/h
Gust
km/h
Spd
kts
Gust
kts
28/11:30pm 9.8 7.8 6.3 79 1.6 WSW 6 7 3 4 1016.2 1016.1 0.0
28/11:00pm 11.1 9.1 7.2 77 1.9 SSW 7 9 4 5 1016.3 1016.2 0.0
28/10:30pm 12.8 10.8 7.0 68 2.8 SW 7 9 4 5 1016.4 1016.3 0.0
28/10:00pm 16.2 13.2 4.3 45 5.6 WSW 9 11 5 6 1016.3 1016.2 0.0
28/09:30pm 18.7 14.9 4.1 38 6.9 SW 13 19 7 10 1016.0 1015.9 0.0
28/09:00pm 18.2 14.5 4.4 40 6.6 WSW 13 19 7 10 1015.7 1015.6 0.0
28/08:30pm 18.3 14.6 4.5 40 6.6 W 13 17 7 9 1015.6 1015.5 0.0
28/08:00pm 17.6 14.4 5.2 44 6.0 WSW 11 17 6 9 1015.2 1015.1 0.0
28/07:30pm 16.7 13.4 6.2 50 5.1 WSW 13 17 7 9 1014.7 1014.6 0.0
28/07:00pm 13.4 11.4 8.7 73 2.4 W 9 11 5 6 1014.5 1014.4 0.0
28/06:30pm 14.5 12.8 8.2 66 3.2 W 7 9 4 5 1014.1 1014.0 0.0
28/06:00pm 17.2 14.9 7.5 53 4.9 WNW 9 11 5 6 1013.5 1013.4 0.0
28/05:30pm 20.0 17.0 6.0 40 7.0 WNW 11 13 6 7 1012.9 1012.8 0.0
28/05:00pm 21.4 18.7 7.3 40 7.3 WNW 11 17 6 9 1012.4 1012.3 0.0
28/04:30pm 23.0 21.4 10.1 44 7.1 WNW 9 13 5 7 1012.2 1012.1 0.0
28/04:00pm 24.3 20.0 5.1 29 9.7 W 17 26 9 14 1011.8 1011.7 0.0
28/03:30pm 23.6 19.8 9.2 40 7.8 NW 19 24 10 13 1011.5 1011.4 0.0
28/03:00pm 24.3 20.3 9.1 38 8.2 WNW 20 33 11 18 1011.3 1011.2 0.0
28/02:30pm 23.1 20.0 10.2 44 7.1 N 17 20 9 11 1011.3 1011.2 0.0
28/02:00pm 23.7 19.9 9.7 41 7.6 NNW 20 26 11 14 1011.5 1011.4 0.0
28/01:30pm 23.4 20.4 10.5 44 7.1 N 17 30 9 16 1011.6 1011.5 0.0
28/01:00pm 22.7 18.9 9.8 44 7.0 NNW 20 26 11 14 1012.1 1012.0 0.0
28/12:30pm 22.8 20.2 9.2 42 7.3 N 13 22 7 12 1012.4 1012.3 0.0
28/12:00pm 22.0 18.8 7.0 38 7.7 WSW 13 20 7 11 1013.0 1012.9 0.0
28/11:30am 21.6 18.3 6.3 37 7.7 SW 13 28 7 15 1013.7 1013.6 0.0
28/11:00am 21.2 17.5 6.3 38 7.5 WSW 15 28 8 15 1014.0 1013.9 0.0
28/10:30am 20.4 17.3 7.1 42 6.8 SW 13 24 7 13 1014.5 1014.4 0.0
28/10:00am 20.3 17.7 7.7 44 6.5 SW 11 17 6 9 1014.9 1014.8 0.0
28/09:30am 20.1 17.7 7.1 43 6.6 W 9 15 5 8 1015.2 1015.1 0.0
28/09:00am 19.4 17.4 8.7 50 5.6 W 9 11 5 6 1015.2 1015.1 0.0
28/08:30am 18.0 16.5 9.1 56 4.6 WNW 7 11 4 6 1015.0 1014.9 0.0
28/08:00am 17.2 16.3 9.1 59 4.2 NW 4 7 2 4 1014.5 1014.4 0.0
28/07:30am 16.9 15.6 9.3 61 4.0 WNW 6 7 3 4 1014.6 1014.5 0.0
28/07:00am 14.2 14.4 10.4 78 2.0 CALM 0 0 0 0 1013.8 1013.7 0.0
28/06:30am 13.0 13.1 10.2 83 1.4 CALM 0 0 0 0 1013.7 1013.6 0.0
28/06:00am 12.6 11.3 9.2 80 1.7 WSW 6 9 3 5 1013.3 1013.2 0.0
28/05:30am 13.0 11.5 8.3 73 2.3 SW 6 7 3 4 1013.2 1013.1 0.0
28/05:00am 14.3 12.6 8.3 67 3.0 WSW 7 9 4 5 1012.9 1012.8 0.0
28/04:30am 16.3 14.5 8.0 58 4.2 SW 7 9 4 5 1012.3 1012.2 0.0
28/04:00am 17.6 14.6 7.9 53 4.9 SW 13 17 7 9 1012.6 1012.5 0.0
28/03:30am 18.0 15.2 8.6 54 4.9 SW 13 17 7 9 1012.3 1012.2 0.0
28/03:00am 18.9 16.2 10.5 58 4.5 SW 15 20 8 11 1012.0 1011.9 0.0
28/02:30am 19.6 17.7 11.9 61 4.3 SW 13 17 7 9 1011.6 1011.5 0.0
28/02:00am 20.0 18.5 13.0 64 4.0 SW 13 22 7 12 1011.6 1011.5 0.0
28/01:30am 19.6 19.8 14.6 73 2.9 SW 7 11 4 6 1011.4 1011.3 0.0
28/01:00am 20.2 20.0 13.6 66 3.8 SSW 7 9 4 5 1011.3 1011.2 0.0
28/12:30am 20.7 19.7 13.4 63 4.2 WSW 11 15 6 8 1011.4 1011.3 0.0
28/12:00am 20.1 20.4 15.1 73 2.9 SW 7 9 4 5 1011.0 1010.9 0.0
 
Date/Time
EST
Temp
°C
App
Temp
°C
Dew
Point
Rel
Hum
%
Delta-T
°C
Wind Press
QNH
hPa
Press
MSL
hPa
Rain
since 9 am
mm
Dir
 
Spd
km/h
Gust
km/h
Spd
kts
Gust
kts
27/11:30pm 19.7 22.2 17.3 86 1.5 CALM 0 7 0 4 1011.4 1011.3 0.0
27/11:00pm 20.1 22.6 17.3 84 1.7 CALM 0 4 0 2 1011.4 1011.3 0.0
27/10:30pm 20.3 21.0 16.1 77 2.5 WNW 7 11 4 6 1011.7 1011.6 0.0
27/10:00pm 20.8 22.2 16.4 76 2.7 SW 4 7 2 4 1011.3 1011.2 0.0
27/09:30pm 21.9 22.9 16.4 71 3.3 SSW 6 9 3 5 1011.4 1011.3 0.0
27/09:00pm 22.8 23.1 15.1 62 4.6 S 7 13 4 7 1011.1 1011.0 0.0
27/08:30pm 23.3 23.7 16.4 65 4.2 SSW 9 13 5 7 1010.7 1010.6 0.0
27/08:00pm 23.1 25.6 20.2 84 1.9 WNW 7 9 4 5 1009.8 1009.7 0.0
27/07:30pm 23.3 25.9 20.4 84 1.9 NW 7 9 4 5 1009.4 1009.3 0.0
27/07:00pm 23.1 25.6 20.2 84 1.9 NNW 7 11 4 6 1008.9 1008.8 0.0
27/06:30pm 23.7 26.0 20.6 83 2.0 NW 9 11 5 6 1008.5 1008.4 0.0
27/06:00pm 23.8 26.3 19.9 79 2.5 NW 6 7 3 4 1008.2 1008.1 0.0
27/05:30pm 24.4 26.3 20.5 79 2.5 NNW 11 15 6 8 1007.9 1007.8 0.0
27/05:00pm 24.3 24.8 20.8 81 2.3 NNW 19 24 10 13 1007.8 1007.7 0.0
27/04:30pm 24.5 25.3 20.6 79 2.5 NNW 17 26 9 14 1007.6 1007.5 0.0
27/04:00pm 25.1 26.0 20.8 77 2.8 NNW 17 24 9 13 1007.3 1007.2 0.0
27/03:30pm 25.0 24.4 20.5 76 2.9 NNW 24 35 13 19 1006.8 1006.7 0.0
27/03:00pm 26.6 27.0 20.7 70 3.9 NNW 19 26 10 14 1006.9 1006.8 0.0
27/02:30pm 25.9 26.2 20.7 73 3.4 NNW 20 32 11 17 1007.1 1007.0 0.0
27/02:00pm 25.2 25.0 20.5 75 3.1 NNW 22 32 12 17 1006.9 1006.8 0.0
27/01:30pm 26.7 25.9 20.1 67 4.3 N 24 33 13 18 1006.8 1006.7 0.0
27/01:00pm 26.3 25.3 18.9 63 4.7 N 22 30 12 16 1007.4 1007.3 0.0
27/12:30pm 27.8 28.2 19.1 59 5.6 NNW 15 24 8 13 1007.8 1007.7 0.0
27/12:00pm 27.2 26.4 18.5 59 5.6 N 20 26 11 14 1008.1 1008.0 0.0
27/11:30am 26.8 25.9 18.1 59 5.5 NNW 20 30 11 16 1008.8 1008.7 0.0

Other Formats:

Comma delimited format used in spreadsheet applications
http://www.bom.gov.au/fwo/IDQ60801/IDQ60801.95565.axf

JavaScript Object Notation format (JSON) in row-major order
http://www.bom.gov.au/fwo/IDQ60801/IDQ60801.95565.json